createdAt,value
2023-05-04T00:01:11.507Z,7.68
2023-05-04T00:06:13.349Z,7.00
2023-05-04T00:11:15.182Z,5.68
2023-05-04T00:16:17.073Z,4.88
2023-05-04T00:21:18.859Z,4.93
2023-05-04T00:26:21.216Z,4.60
2023-05-04T00:31:23.734Z,4.50
2023-05-04T00:36:25.869Z,5.65
2023-05-04T00:41:27.765Z,4.95
2023-05-04T00:46:30.099Z,5.47
2023-05-04T00:51:33.421Z,4.68
2023-05-04T00:56:41.232Z,4.07
2023-05-04T01:01:43.195Z,4.63
2023-05-04T01:06:52.796Z,4.65
2023-05-04T01:12:08.343Z,4.57
2023-05-04T01:17:11.952Z,4.28
2023-05-04T01:22:13.876Z,4.18
2023-05-04T01:27:23.319Z,5.20
2023-05-04T01:32:28.535Z,4.13
2023-05-04T01:37:33.060Z,4.40
2023-05-04T01:42:35.267Z,4.38
2023-05-04T01:47:37.075Z,4.03
2023-05-04T01:52:40.000Z,4.38
2023-05-04T01:57:41.790Z,4.25
2023-05-04T02:02:43.918Z,4.75
2023-05-04T02:07:49.524Z,4.80
2023-05-04T02:12:52.305Z,4.82
2023-05-04T02:17:54.241Z,5.45
2023-05-04T02:22:56.271Z,5.00
2023-05-04T02:27:58.055Z,5.07
2023-05-04T02:32:59.914Z,5.10
2023-05-04T02:38:01.808Z,4.72
2023-05-04T02:43:03.636Z,4.80
2023-05-04T02:48:05.645Z,5.15
2023-05-04T02:53:07.447Z,4.45
2023-05-04T02:58:09.268Z,4.78
2023-05-04T03:03:12.546Z,5.50
2023-05-04T03:08:14.386Z,5.50
2023-05-04T03:13:16.799Z,4.72
2023-05-04T03:18:18.849Z,4.93
2023-05-04T03:23:23.028Z,5.43
2023-05-04T03:28:25.184Z,5.10
2023-05-04T03:33:27.043Z,5.00
2023-05-04T03:38:31.831Z,4.88
2023-05-04T03:43:34.360Z,4.60
2023-05-04T03:48:36.564Z,5.20
2023-05-04T03:53:41.736Z,5.38
2023-05-04T03:58:44.721Z,5.20
2023-05-04T04:03:49.722Z,5.18
2023-05-04T04:08:53.962Z,4.82
2023-05-04T04:13:56.029Z,4.45
2023-05-04T04:18:58.248Z,4.72
2023-05-04T04:24:00.000Z,4.32
2023-05-04T04:29:02.338Z,4.40
2023-05-04T04:34:04.189Z,4.53
2023-05-04T04:39:06.401Z,4.30
2023-05-04T04:44:08.185Z,4.35
2023-05-04T04:49:10.258Z,4.25
2023-05-04T04:54:12.022Z,3.83
2023-05-04T04:59:14.159Z,4.50
2023-05-04T05:04:16.100Z,3.70
2023-05-04T05:09:18.000Z,4.05
2023-05-04T05:14:19.749Z,3.80
2023-05-04T05:19:21.520Z,3.65
2023-05-04T05:24:23.453Z,4.22
2023-05-04T05:29:25.473Z,3.40
2023-05-04T05:34:27.388Z,3.40
2023-05-04T05:39:29.397Z,4.10
2023-05-04T05:44:31.384Z,3.45
2023-05-04T05:49:33.285Z,3.90
2023-05-04T05:54:35.426Z,3.28
2023-05-04T05:59:37.236Z,3.35
2023-05-04T06:04:39.396Z,3.95
2023-05-04T06:09:41.494Z,3.00
2023-05-04T06:14:43.722Z,3.17
2023-05-04T06:19:48.096Z,2.95
2023-05-04T06:24:51.368Z,3.67
2023-05-04T06:29:53.158Z,3.17
2023-05-04T06:34:59.530Z,3.22
2023-05-04T06:40:01.316Z,3.03
2023-05-04T06:45:03.332Z,2.75
2023-05-04T06:50:12.173Z,3.28
2023-05-04T06:55:14.032Z,3.67
2023-05-04T07:00:15.984Z,3.03
2023-05-04T07:05:17.881Z,3.03
2023-05-04T07:10:19.735Z,3.10
2023-05-04T07:15:21.706Z,3.17
2023-05-04T07:20:25.858Z,3.60
2023-05-04T07:25:28.957Z,2.97
2023-05-04T07:30:30.846Z,3.95
2023-05-04T07:35:32.627Z,3.33
2023-05-04T07:40:34.533Z,3.00
2023-05-04T07:45:36.394Z,3.67
2023-05-04T07:50:38.244Z,4.25
2023-05-04T07:55:40.144Z,3.05
2023-05-04T08:00:41.980Z,2.70
2023-05-04T08:05:43.846Z,2.78
2023-05-04T08:10:45.730Z,2.72
2023-05-04T08:15:47.559Z,2.83
2023-05-04T08:20:49.446Z,2.13
2023-05-04T08:25:52.458Z,2.63
2023-05-04T08:30:54.288Z,2.53
2023-05-04T08:35:56.350Z,2.35
2023-05-04T08:40:58.234Z,2.00
2023-05-04T08:46:00.236Z,2.65
2023-05-04T08:51:04.513Z,1.85
2023-05-04T08:56:09.610Z,2.75
2023-05-04T09:01:12.399Z,2.25
2023-05-04T09:06:14.870Z,2.33
2023-05-04T09:11:17.252Z,2.47
2023-05-04T09:16:20.185Z,2.17
2023-05-04T09:21:30.220Z,2.13
2023-05-04T09:26:33.079Z,1.90
2023-05-04T09:31:52.478Z,2.58
2023-05-04T09:37:02.124Z,1.92
2023-05-04T09:42:05.861Z,2.37
2023-05-04T09:47:08.547Z,2.42
2023-05-04T09:52:12.060Z,2.65
2023-05-04T09:57:15.557Z,2.55
2023-05-04T10:02:22.494Z,2.63
2023-05-04T10:07:25.302Z,2.17
2023-05-04T10:12:27.686Z,2.10
2023-05-04T10:17:47.351Z,2.53
2023-05-04T10:23:23.674Z,2.72
2023-05-04T10:28:57.085Z,2.40
2023-05-04T10:33:58.929Z,2.33
2023-05-04T10:39:01.504Z,2.00
2023-05-04T10:44:06.734Z,2.58
2023-05-04T10:49:17.913Z,2.38
2023-05-04T10:54:20.067Z,2.80
2023-05-04T10:59:22.033Z,2.78
2023-05-04T11:04:24.624Z,2.50
2023-05-04T11:09:28.284Z,1.85
2023-05-04T11:14:30.404Z,2.40
2023-05-04T11:19:33.603Z,2.20
2023-05-04T11:24:43.553Z,2.30
2023-05-04T11:30:06.048Z,2.28
2023-05-04T11:35:09.794Z,2.10
2023-05-04T11:40:14.204Z,2.63
2023-05-04T11:45:22.186Z,2.67
2023-05-04T11:50:25.328Z,2.55
2023-05-04T11:55:31.998Z,2.55
2023-05-04T12:00:40.390Z,2.22
2023-05-04T12:05:50.936Z,2.10
2023-05-04T12:16:18.449Z,2.40
2023-05-04T12:26:26.282Z,1.70
2023-05-04T12:31:28.765Z,2.13
2023-05-04T12:36:30.780Z,2.00
2023-05-04T12:41:32.699Z,2.10
2023-05-04T12:46:34.630Z,2.30
2023-05-04T12:51:36.884Z,2.40
2023-05-04T12:56:39.865Z,1.90
2023-05-04T13:01:41.806Z,1.70
2023-05-04T13:06:44.287Z,2.25
2023-05-04T13:11:47.631Z,1.90
2023-05-04T13:16:51.040Z,1.60
2023-05-04T13:21:52.937Z,2.05
2023-05-04T13:26:54.759Z,1.80
2023-05-04T13:31:57.391Z,1.77
2023-05-04T13:36:59.246Z,1.65
2023-05-04T13:42:01.032Z,1.95
2023-05-04T13:47:03.732Z,1.70
2023-05-04T13:52:06.240Z,1.70
2023-05-04T13:57:08.037Z,2.03
2023-05-04T14:02:09.861Z,2.50
2023-05-04T14:07:11.676Z,1.75
2023-05-04T14:12:13.452Z,1.70
2023-05-04T14:17:15.244Z,1.85
2023-05-04T14:22:17.277Z,1.55
2023-05-04T14:27:21.112Z,1.95
2023-05-04T14:32:23.247Z,1.88
2023-05-04T14:37:25.077Z,2.08
2023-05-04T14:42:27.020Z,2.00
2023-05-04T14:47:29.167Z,1.98
2023-05-04T14:52:31.195Z,1.90
2023-05-04T14:57:33.086Z,1.58
2023-05-04T15:02:35.890Z,1.60
2023-05-04T15:07:37.893Z,2.08
2023-05-04T15:12:40.248Z,1.63
2023-05-04T15:17:42.266Z,1.80
2023-05-04T15:22:52.220Z,2.08
2023-05-04T15:27:55.522Z,1.90
2023-05-04T15:32:57.528Z,1.77
2023-05-04T15:37:59.761Z,2.08
2023-05-04T15:43:01.544Z,1.65
2023-05-04T15:48:03.628Z,1.92
2023-05-04T15:53:05.452Z,1.52
2023-05-04T15:58:07.724Z,1.55
2023-05-04T16:03:09.567Z,1.48
2023-05-04T16:08:11.617Z,1.70
2023-05-04T16:13:13.511Z,1.83
2023-05-04T16:18:15.512Z,1.83
2023-05-04T16:23:18.460Z,1.58
2023-05-04T16:28:20.366Z,1.75
2023-05-04T16:33:22.179Z,1.58
2023-05-04T16:38:24.164Z,1.33
2023-05-04T16:43:26.114Z,1.70
2023-05-04T16:48:27.926Z,2.00
2023-05-04T16:53:29.696Z,2.15
2023-05-04T16:58:31.479Z,2.30
2023-05-04T17:03:33.293Z,1.98
2023-05-04T17:08:35.114Z,2.05
2023-05-04T17:13:37.296Z,2.03
2023-05-04T17:18:39.077Z,2.00
2023-05-04T17:23:41.129Z,2.75
2023-05-04T17:28:42.953Z,1.98
2023-05-04T17:33:44.751Z,2.13
2023-05-04T17:38:46.574Z,2.30
2023-05-04T17:43:50.244Z,1.75
2023-05-04T17:48:54.588Z,2.22
2023-05-04T17:53:56.501Z,2.85
2023-05-04T17:58:58.783Z,2.97
2023-05-04T18:04:03.295Z,3.50
2023-05-04T18:09:05.145Z,2.40
2023-05-04T18:14:07.190Z,2.00
2023-05-04T18:19:09.112Z,2.38
2023-05-04T18:24:10.918Z,2.60
2023-05-04T18:34:19.427Z,1.90
2023-05-04T18:39:21.201Z,2.53
2023-05-04T18:44:23.091Z,2.20
2023-05-04T18:49:25.044Z,3.35
2023-05-04T18:54:30.163Z,2.22
2023-05-04T18:59:33.972Z,2.58
2023-05-04T19:04:35.821Z,2.78
2023-05-04T19:09:37.948Z,3.78
2023-05-04T19:14:40.672Z,2.92
2023-05-04T19:19:42.480Z,2.17
2023-05-04T19:24:44.546Z,2.40
2023-05-04T19:29:47.242Z,2.50
2023-05-04T19:34:48.985Z,2.15
2023-05-04T19:39:51.050Z,1.85
2023-05-04T19:44:53.285Z,2.30
2023-05-04T19:49:55.301Z,2.22
2023-05-04T19:54:57.092Z,2.03
2023-05-04T19:59:59.324Z,2.00
2023-05-04T20:05:01.192Z,2.40
2023-05-04T20:10:03.469Z,2.38
2023-05-04T20:15:06.666Z,1.90
2023-05-04T20:20:09.831Z,2.22
2023-05-04T20:25:12.014Z,2.60
2023-05-04T20:30:13.916Z,2.10
2023-05-04T20:35:16.524Z,2.05
2023-05-04T20:40:18.379Z,2.40
2023-05-04T20:45:20.807Z,2.05
2023-05-04T20:50:23.149Z,2.80
2023-05-04T20:55:24.945Z,2.30
2023-05-04T21:00:27.205Z,2.30
2023-05-04T21:05:29.006Z,2.47
2023-05-04T21:10:30.876Z,2.15
2023-05-04T21:15:32.724Z,1.90
2023-05-04T21:20:34.509Z,2.60
2023-05-04T21:25:36.393Z,2.13
2023-05-04T21:30:42.957Z,2.50
2023-05-04T21:35:45.086Z,2.20
2023-05-04T21:40:46.977Z,2.20
2023-05-04T21:45:48.726Z,2.67
2023-05-04T21:50:50.490Z,2.05
2023-05-04T21:55:52.524Z,2.13
2023-05-04T22:00:55.329Z,1.92
2023-05-04T22:06:00.595Z,2.58
2023-05-04T22:11:02.548Z,2.53
2023-05-04T22:16:04.630Z,2.53
2023-05-04T22:21:06.591Z,2.30
2023-05-04T22:26:08.417Z,2.70
2023-05-04T22:31:10.506Z,2.28
2023-05-04T22:36:12.669Z,1.90
2023-05-04T22:41:15.083Z,2.17
2023-05-04T22:46:17.726Z,3.78
2023-05-04T22:51:19.508Z,12.30
2023-05-04T22:56:21.415Z,17.50
2023-05-04T23:01:23.558Z,14.02
2023-05-04T23:06:25.397Z,12.07
2023-05-04T23:11:27.292Z,6.93
2023-05-04T23:16:29.210Z,6.40
2023-05-04T23:21:31.553Z,4.85
2023-05-04T23:26:33.431Z,4.78
2023-05-04T23:31:35.256Z,3.95
2023-05-04T23:36:37.748Z,3.83
2023-05-04T23:41:39.539Z,4.45
2023-05-04T23:46:41.423Z,4.07
2023-05-04T23:51:43.349Z,3.88
2023-05-04T23:56:45.200Z,3.72
